Time;durP1;ratioP1;P1;durP2;ratioP2;P2;SDS_P1;SDS_P2;PMS_P1;PMS_P2;Temp;Humidity;BMP_temperature;BMP_pressure;BME280_temperature;BME280_humidity;BME280_pressure;Samples;Min_cycle;Max_cycle;Signal;HPM_P1;HPM_P2
2021/06/29 00:01:06;;;;;;;14.02;10.90;;;;;;;19.55;92.86;97156.22;5064149;28;20124;-65
2021/06/29 00:03:31;;;;;;;10.38;9.20;;;;;;;19.82;92.99;97197.56;5064268;28;20040;-63
2021/06/29 00:05:57;;;;;;;13.85;9.50;;;;;;;19.75;92.30;97175.19;5062471;28;20036;-65
2021/06/29 00:08:22;;;;;;;13.73;10.50;;;;;;;19.75;92.13;97186.44;5064062;28;20040;-63
2021/06/29 00:10:48;;;;;;;12.52;10.23;;;;;;;19.86;91.91;97198.31;5064155;28;20028;-63
2021/06/29 00:13:26;;;;;;;11.93;9.70;;;;;;;19.84;92.32;97200.75;5062539;28;20526;-63
2021/06/29 00:15:51;;;;;;;12.45;10.25;;;;;;;19.73;92.10;97183.28;5061935;28;20119;-64
2021/06/29 00:18:17;;;;;;;13.52;10.13;;;;;;;19.85;92.11;97199.53;5063745;28;20116;-64
2021/06/29 00:20:43;;;;;;;14.60;10.93;;;;;;;19.77;92.27;97189.63;5063252;28;20068;-63
2021/06/29 00:23:08;;;;;;;13.00;9.95;;;;;;;19.76;92.46;97188.03;5063764;28;20036;-63
2021/06/29 00:25:34;;;;;;;12.68;11.40;;;;;;;19.38;92.88;97140.47;5063404;28;20565;-65
2021/06/29 00:27:59;;;;;;;17.27;12.52;;;;;;;19.76;93.93;97185.22;5063952;28;20063;-63
2021/06/29 00:30:25;;;;;;;15.38;12.77;;;;;;;19.71;95.09;97186.53;5062485;28;20044;-63
2021/06/29 00:32:51;;;;;;;15.80;11.90;;;;;;;19.67;95.38;97191.38;5063792;28;20068;-63
2021/06/29 00:35:17;;;;;;;14.90;12.25;;;;;;;19.74;94.71;97179.25;5061843;28;20040;-63
2021/06/29 00:37:43;;;;;;;15.27;11.15;;;;;;;19.82;93.61;97191.94;5063959;28;20032;-63
2021/06/29 00:40:10;;;;;;;15.35;11.98;;;;;;;19.51;94.25;97137.84;5063728;28;20044;-63
2021/06/29 00:42:36;;;;;;;17.55;12.00;;;;;;;17.59;93.93;96823.28;5063610;28;20043;-65
2021/06/29 00:45:05;;;;;;;13.15;11.75;;;;;;;19.89;94.55;97169.31;5062275;28;20514;-66
2021/06/29 00:47:30;;;;;;;17.15;11.25;;;;;;;19.93;93.49;97170.06;5062010;28;20174;-64
2021/06/29 00:49:56;;;;;;;17.50;11.70;;;;;;;19.98;93.17;97186.47;5061872;28;20130;-64
2021/06/29 00:52:22;;;;;;;12.50;11.20;;;;;;;19.92;93.36;97168.47;5061629;28;20032;-64
2021/06/29 00:54:49;;;;;;;12.48;11.02;;;;;;;19.58;92.93;97097.59;5062186;28;20644;-64
2021/06/29 00:57:15;;;;;;;13.80;10.98;;;;;;;19.35;93.50;97092.75;5063072;28;20036;-65
2021/06/29 00:59:42;;;;;;;13.70;12.02;;;;;;;19.66;93.00;97129.97;5062128;28;20033;-63
2021/06/29 01:02:09;;;;;;;13.52;11.85;;;;;;;19.76;93.55;97134.63;5062995;28;20639;-64
2021/06/29 01:04:37;;;;;;;18.15;11.20;;;;;;;19.50;93.38;97094.94;5062391;28;21104;-64
2021/06/29 01:07:04;;;;;;;15.88;11.68;;;;;;;19.55;93.66;97139.38;5062964;28;20491;-65
2021/06/29 01:09:31;;;;;;;16.38;12.55;;;;;;;19.88;93.92;97162.13;5063172;28;20518;-64
2021/06/29 01:11:56;;;;;;;14.98;12.18;;;;;;;19.91;93.93;97172.50;5062797;28;20087;-64
2021/06/29 01:14:22;;;;;;;14.73;11.85;;;;;;;19.44;93.93;97085.38;5061524;28;20598;-66
2021/06/29 01:16:47;;;;;;;13.82;12.32;;;;;;;19.84;94.21;97167.03;5062816;28;20036;-65
2021/06/29 01:19:18;;;;;;;15.40;12.02;;;;;;;19.75;94.34;97175.19;5063528;28;20052;-64
2021/06/29 01:21:46;;;;;;;16.88;12.23;;;;;;;19.73;94.72;97160.78;5063471;28;20035;-63
2021/06/29 01:24:19;;;;;;;15.00;11.20;;;;;;;19.70;94.52;97156.00;5063755;28;20044;-63
2021/06/29 01:32:03;;;;;;;14.73;13.20;;;;;;;19.42;94.48;97104.69;5061520;28;20116;-64
2021/06/29 01:34:29;;;;;;;15.95;13.07;;;;;;;19.30;94.71;97105.28;5060396;28;20131;-65
2021/06/29 01:36:54;;;;;;;17.33;13.40;;;;;;;19.53;95.67;97158.69;5064406;28;20107;-62
2021/06/29 01:39:19;;;;;;;17.17;13.38;;;;;;;19.53;96.50;97158.69;5064215;28;20032;-63
2021/06/29 01:41:45;;;;;;;14.20;12.70;;;;;;;19.47;96.17;97143.53;5065927;28;20051;-63
2021/06/29 01:44:14;;;;;;;14.68;12.23;;;;;;;19.30;96.51;97113.69;5065959;28;20525;-63
2021/06/29 01:46:42;;;;;;;16.80;12.95;;;;;;;19.57;96.34;97164.25;5065492;28;20089;-63
2021/06/29 01:49:07;;;;;;;15.07;12.07;;;;;;;19.47;97.04;97163.19;5066684;28;20039;-63
2021/06/29 01:51:33;;;;;;;14.65;12.70;;;;;;;19.23;98.08;97122.22;5064979;28;20032;-63
2021/06/29 01:53:59;;;;;;;19.58;13.05;;;;;;;19.44;97.54;97161.22;5066896;28;20043;-65
2021/06/29 01:56:30;;;;;;;18.70;13.18;;;;;;;19.39;97.90;97164.53;5064799;28;20590;-63
2021/06/29 01:59:06;;;;;;;21.85;13.35;;;;;;;19.16;97.12;97111.09;5065191;28;20121;-63
2021/06/29 02:01:31;;;;;;;13.45;12.05;;;;;;;19.02;96.64;97077.63;5065091;28;20527;-63
2021/06/29 02:03:57;;;;;;;16.02;14.00;;;;;;;19.22;97.02;97129.03;5065555;28;20040;-62
2021/06/29 02:06:22;;;;;;;24.20;14.05;;;;;;;19.55;96.45;97167.47;5064591;28;20037;-64
2021/06/29 02:08:48;;;;;;;15.38;13.23;;;;;;;19.29;96.05;97114.13;5065058;28;20040;-62
2021/06/29 02:11:13;;;;;;;18.65;13.73;;;;;;;19.48;95.97;97142.31;5066136;28;20036;-64
2021/06/29 02:13:39;;;;;;;15.02;13.25;;;;;;;19.40;96.36;97143.66;5064659;28;20056;-62
2021/06/29 02:16:05;;;;;;;16.05;14.02;;;;;;;18.56;95.73;97010.16;5066013;28;20075;-64
2021/06/29 02:18:31;;;;;;;18.10;13.13;;;;;;;19.44;96.41;97166.84;5066295;28;20032;-62
2021/06/29 02:20:57;;;;;;;18.45;13.15;;;;;;;19.42;96.73;97180.56;5064587;28;20089;-66
2021/06/29 02:23:24;;;;;;;20.15;13.73;;;;;;;19.02;97.31;97105.69;5065031;28;20040;-63
2021/06/29 02:25:50;;;;;;;18.80;13.90;;;;;;;19.39;96.74;97164.53;5064416;28;20037;-63
2021/06/29 02:28:16;;;;;;;20.17;13.85;;;;;;;19.34;96.43;97183.88;5066150;28;20212;-63
2021/06/29 02:30:41;;;;;;;15.35;13.82;;;;;;;19.18;96.20;97150.78;5064402;28;20039;-63
2021/06/29 02:33:08;;;;;;;17.25;13.90;;;;;;;19.18;98.23;97170.44;5064534;28;20035;-65
2021/06/29 02:35:34;;;;;;;16.45;14.65;;;;;;;19.01;98.93;97137.81;5064196;28;20594;-62
2021/06/29 02:38:00;;;;;;;16.27;13.55;;;;;;;18.90;99.02;97111.91;5065303;28;20033;-63
2021/06/29 02:40:25;;;;;;;15.95;13.82;;;;;;;18.91;98.12;97130.31;5064201;28;20094;-64
2021/06/29 02:42:51;;;;;;;21.35;13.60;;;;;;;18.79;98.25;97116.88;5066647;28;20036;-63
2021/06/29 02:45:18;;;;;;;16.90;14.65;;;;;;;19.21;97.96;97175.22;5064191;28;20484;-62
2021/06/29 02:47:45;;;;;;;16.75;13.98;;;;;;;19.24;97.47;97167.94;5064258;28;20051;-63
2021/06/29 02:50:11;;;;;;;17.92;15.27;;;;;;;18.74;98.24;97100.50;5063873;28;20044;-65
2021/06/29 02:52:38;;;;;;;16.70;14.70;;;;;;;19.22;98.16;97159.94;5065642;28;20044;-63
2021/06/29 02:55:07;;;;;;;17.33;15.32;;;;;;;18.86;98.00;97118.75;5066078;28;20033;-64
2021/06/29 02:57:32;;;;;;;20.67;15.60;;;;;;;18.55;98.09;97070.28;5065773;28;20571;-64
2021/06/29 02:59:58;;;;;;;20.67;15.48;;;;;;;19.25;98.18;97159.09;5064235;28;20029;-64
2021/06/29 03:02:23;;;;;;;16.17;14.48;;;;;;;19.06;98.03;97116.88;5065436;28;20060;-63
2021/06/29 03:04:49;;;;;;;19.25;14.52;;;;;;;19.41;97.76;97166.94;5065702;28;20043;-65
2021/06/29 03:07:14;;;;;;;17.13;13.75;;;;;;;19.48;97.37;97156.38;5064955;28;20125;-63
2021/06/29 03:09:40;;;;;;;18.25;13.98;;;;;;;19.50;96.81;97153.13;5065642;28;20054;-64
2021/06/29 03:12:07;;;;;;;16.23;13.85;;;;;;;18.93;96.76;97063.31;5065233;28;20035;-65
2021/06/29 03:14:36;;;;;;;17.17;15.38;;;;;;;19.65;95.45;97148.06;5065394;28;20053;-65
2021/06/29 03:17:05;;;;;;;19.50;15.35;;;;;;;19.62;95.22;97129.25;5063361;28;20029;-66
2021/06/29 03:19:32;;;;;;;16.55;14.85;;;;;;;19.64;95.54;97140.84;5065481;28;20041;-65
2021/06/29 03:21:57;;;;;;;15.52;14.02;;;;;;;19.74;94.62;97145.50;5063074;28;20449;-65
2021/06/29 03:24:23;;;;;;;15.98;14.20;;;;;;;19.66;94.87;97149.66;5064843;28;20052;-65
2021/06/29 03:26:49;;;;;;;21.40;13.77;;;;;;;19.04;96.56;97069.56;5063308;28;20028;-65
2021/06/29 03:29:15;;;;;;;16.20;14.18;;;;;;;19.58;96.90;97144.13;5063466;28;20036;-65
2021/06/29 03:31:40;;;;;;;16.38;14.07;;;;;;;19.38;96.01;97098.31;5064869;28;20035;-65
2021/06/29 03:34:06;;;;;;;19.52;14.07;;;;;;;19.76;95.67;97143.84;5065331;28;20040;-65
2021/06/29 03:36:31;;;;;;;16.85;12.65;;;;;;;19.90;95.36;97143.59;5062898;28;20029;-64
2021/06/29 03:38:57;;;;;;;16.98;14.00;;;;;;;19.89;94.12;97136.38;5064669;28;20468;-65
2021/06/29 03:41:23;;;;;;;17.75;13.52;;;;;;;20.12;93.93;97149.63;5064289;28;20495;-66
2021/06/29 03:43:49;;;;;;;18.38;12.50;;;;;;;19.83;94.35;97103.56;5064893;28;20039;-67
2021/06/29 03:46:14;;;;;;;16.00;13.50;;;;;;;20.16;95.04;97147.56;5062667;28;20033;-65
2021/06/29 03:48:40;;;;;;;20.55;13.95;;;;;;;19.59;93.80;97060.63;5064784;28;20461;-65
2021/06/29 03:51:05;;;;;;;17.77;13.57;;;;;;;20.28;93.22;97150.53;5064611;28;20028;-65
2021/06/29 03:53:31;;;;;;;19.63;13.25;;;;;;;20.46;92.23;97162.25;5063044;28;20037;-64
2021/06/29 03:55:56;;;;;;;15.43;13.82;;;;;;;19.74;91.60;97058.34;5064251;28;20032;-65
2021/06/29 03:58:22;;;;;;;20.90;13.50;;;;;;;20.60;90.60;97147.88;5063879;28;20097;-64
2021/06/29 04:00:47;;;;;;;14.75;13.15;;;;;;;20.28;89.69;97085.81;5064255;28;20036;-64
2021/06/29 04:03:13;;;;;;;14.98;13.30;;;;;;;20.93;88.79;97145.97;5064426;28;20090;-65
2021/06/29 04:05:38;;;;;;;15.10;12.98;;;;;;;20.89;88.38;97136.81;5064108;28;20415;-64
2021/06/29 04:08:05;;;;;;;17.33;14.13;;;;;;;21.08;88.01;97157.75;5064490;28;20480;-64
2021/06/29 04:10:31;;;;;;;17.25;13.40;;;;;;;21.04;88.06;97121.22;5062331;28;20079;-64
2021/06/29 04:12:57;;;;;;;20.05;14.55;;;;;;;21.32;87.70;97154.38;5064487;28;20119;-65
2021/06/29 04:15:23;;;;;;;17.65;12.75;;;;;;;21.47;85.82;97138.72;5063484;28;20052;-64
2021/06/29 04:17:48;;;;;;;17.75;14.45;;;;;;;20.96;89.59;97139.50;5064119;28;20388;-64
2021/06/29 04:20:14;;;;;;;17.40;14.10;;;;;;;21.22;87.73;97115.97;5062084;28;20125;-64
2021/06/29 04:22:40;;;;;;;15.35;13.80;;;;;;;21.33;86.64;97096.78;5062474;28;20068;-63
2021/06/29 04:25:07;;;;;;;18.58;14.48;;;;;;;21.80;86.65;97151.59;5064010;28;20044;-64
2021/06/29 04:27:32;;;;;;;17.67;14.10;;;;;;;21.89;87.36;97153.81;5063993;28;20060;-63
2021/06/29 04:29:58;;;;;;;18.17;13.98;;;;;;;21.77;85.68;97129.94;5064273;28;20455;-64
2021/06/29 04:32:23;;;;;;;20.45;13.93;;;;;;;22.11;85.01;97149.97;5063602;28;20552;-64
2021/06/29 04:34:49;;;;;;;16.85;14.35;;;;;;;22.22;84.63;97127.91;5063958;28;20036;-65
2021/06/29 04:37:15;;;;;;;15.32;13.68;;;;;;;22.49;83.44;97142.47;5061790;28;20123;-64
2021/06/29 04:39:43;;;;;;;17.25;13.43;;;;;;;22.62;81.94;97142.53;5062459;28;20533;-63
2021/06/29 04:42:09;;;;;;;18.30;12.98;;;;;;;22.59;81.90;97125.72;5063447;28;20141;-63
2021/06/29 04:44:38;;;;;;;15.70;12.70;;;;;;;22.81;80.50;97146.47;5061916;28;20588;-64
2021/06/29 04:47:05;;;;;;;14.15;12.55;;;;;;;22.95;80.28;97143.22;5062004;28;20025;-64
2021/06/29 04:49:31;;;;;;;18.40;13.20;;;;;;;23.00;80.35;97143.44;5063499;28;20041;-64
2021/06/29 04:51:57;;;;;;;14.32;12.70;;;;;;;22.96;80.05;97120.16;5063373;28;20028;-64
2021/06/29 04:54:23;;;;;;;15.32;13.35;;;;;;;22.75;79.05;97077.59;5062007;28;20078;-65
2021/06/29 04:56:48;;;;;;;17.10;13.65;;;;;;;23.24;79.49;97146.72;5063046;28;20025;-65
2021/06/29 04:59:14;;;;;;;17.17;14.48;;;;;;;22.88;79.85;97090.53;5061454;28;20503;-66
2021/06/29 05:01:39;;;;;;;18.90;14.95;;;;;;;23.36;79.77;97131.84;5063019;28;20032;-65
2021/06/29 05:04:04;;;;;;;16.48;14.77;;;;;;;23.48;79.29;97139.53;5061945;28;20044;-67
2021/06/29 05:06:30;;;;;;;20.70;14.38;;;;;;;23.27;79.21;97106.28;5063096;28;20032;-67
2021/06/29 05:08:55;;;;;;;18.83;15.20;;;;;;;23.60;79.38;97142.34;5061790;28;20033;-67
2021/06/29 05:11:21;;;;;;;15.88;14.07;;;;;;;23.65;79.55;97121.19;5062525;28;20164;-67
2021/06/29 05:13:46;;;;;;;17.45;13.63;;;;;;;23.43;79.49;97086.38;5063208;28;20531;-67
2021/06/29 05:16:12;;;;;;;23.80;13.85;;;;;;;23.92;78.92;97124.31;5062505;28;20040;-69
2021/06/29 05:18:37;;;;;;;16.05;14.35;;;;;;;24.12;78.39;97133.38;5061507;28;20566;-65
2021/06/29 05:21:03;;;;;;;15.88;14.18;;;;;;;24.17;77.09;97124.28;5063251;28;20028;-66
2021/06/29 05:23:29;;;;;;;18.85;15.27;;;;;;;24.57;75.98;97127.28;5063652;28;20040;-66
2021/06/29 05:25:54;;;;;;;17.35;14.15;;;;;;;24.49;75.58;97087.09;5062850;28;20089;-68
2021/06/29 05:28:22;;;;;;;19.17;15.20;;;;;;;24.70;75.88;97105.38;5061366;28;20475;-66
2021/06/29 05:30:49;;;;;;;17.33;14.52;;;;;;;24.76;75.67;97129.03;5061299;28;20174;-67
2021/06/29 05:33:15;;;;;;;19.58;15.52;;;;;;;24.92;75.58;97145.81;5061636;28;20055;-66
2021/06/29 05:35:41;;;;;;;16.80;14.98;;;;;;;25.12;75.35;97120.75;5061481;28;20063;-66
2021/06/29 05:38:07;;;;;;;16.40;14.82;;;;;;;25.23;75.30;97121.91;5063358;28;20063;-66
2021/06/29 05:40:33;;;;;;;19.23;14.90;;;;;;;25.44;73.68;97120.31;5063193;28;20048;-67
2021/06/29 05:42:59;;;;;;;15.65;14.05;;;;;;;25.55;72.90;97119.88;5063621;28;20020;-66
2021/06/29 05:45:25;;;;;;;16.90;15.27;;;;;;;25.31;72.99;97077.03;5061197;28;20063;-66
2021/06/29 05:47:51;;;;;;;16.65;12.75;;;;;;;25.77;67.62;97115.69;5061760;28;20427;-66
2021/06/29 05:50:17;;;;;;;15.45;12.15;;;;;;;25.97;66.20;97123.78;5062389;28;20043;-64
2021/06/29 05:52:43;;;;;;;13.50;12.20;;;;;;;25.84;66.42;97098.38;5048672;28;20036;-64
2021/06/29 05:55:09;;;;;;;21.02;13.73;;;;;;;25.89;66.90;97122.50;5043544;28;20575;-61
2021/06/29 05:57:38;;;;;;;16.27;13.38;;;;;;;25.22;67.11;97026.75;5047304;28;20060;-60
2021/06/29 06:00:09;;;;;;;16.20;12.43;;;;;;;25.55;66.20;97029.88;5042309;28;20039;-64
2021/06/29 06:02:35;;;;;;;14.43;11.95;;;;;;;26.08;63.90;97118.47;5050767;28;20040;-66
2021/06/29 06:05:00;;;;;;;14.82;12.23;;;;;;;25.50;61.74;97024.03;5041187;28;20037;-64
2021/06/29 06:07:26;;;;;;;18.67;13.73;;;;;;;26.06;62.18;97093.38;5046283;28;20057;-61
2021/06/29 06:09:51;;;;;;;16.17;11.95;;;;;;;26.41;61.14;97136.50;5058097;28;20033;-66
2021/06/29 06:12:17;;;;;;;13.50;12.07;;;;;;;26.41;60.62;97091.03;5063012;28;20772;-64
2021/06/29 06:14:42;;;;;;;12.68;11.32;;;;;;;26.62;61.72;97118.47;5062590;28;20129;-66
2021/06/29 06:17:08;;;;;;;13.05;11.57;;;;;;;26.64;61.01;97104.63;5062499;28;20048;-73
2021/06/29 06:19:33;;;;;;;14.00;11.65;;;;;;;26.91;60.21;97130.16;5057777;28;20072;-61
2021/06/29 06:22:03;;;;;;;12.98;11.65;;;;;;;26.99;60.32;97120.03;5060309;28;20035;-62
2021/06/29 06:24:28;;;;;;;14.45;12.35;;;;;;;26.79;60.09;97082.81;5048882;28;20499;-67
2021/06/29 06:26:54;;;;;;;15.93;13.90;;;;;;;26.30;60.71;96982.78;5056243;28;20037;-64
2021/06/29 06:29:19;;;;;;;15.18;13.45;;;;;;;27.33;60.32;97104.66;5053465;28;20041;-66
2021/06/29 06:31:45;;;;;;;14.93;12.40;;;;;;;27.03;59.80;97052.41;5058367;28;20024;-67
2021/06/29 06:34:10;;;;;;;14.63;12.43;;;;;;;27.64;59.31;97120.19;5062307;28;20141;-69
2021/06/29 06:36:36;;;;;;;15.25;11.95;;;;;;;27.55;59.33;97080.34;5048073;28;20037;-62
2021/06/29 06:39:02;;;;;;;13.43;12.23;;;;;;;27.62;58.19;97068.63;5064232;28;20047;-67
2021/06/29 06:41:28;;;;;;;13.55;12.15;;;;;;;26.83;58.11;96929.91;5061822;28;20060;-73
2021/06/29 06:43:53;;;;;;;13.80;12.38;;;;;;;28.05;58.63;97107.94;5045391;28;20214;-66
2021/06/29 06:46:19;;;;;;;19.92;13.20;;;;;;;27.79;57.97;97041.31;5046536;28;20077;-65
2021/06/29 06:48:44;;;;;;;17.15;12.85;;;;;;;28.35;57.39;97085.25;5047104;28;20131;-73
2021/06/29 06:51:10;;;;;;;12.38;11.32;;;;;;;28.71;56.04;97111.41;5061764;28;20033;-59
2021/06/29 06:53:36;;;;;;;16.33;13.18;;;;;;;28.78;55.64;97113.09;5065619;28;20055;-72
2021/06/29 06:56:03;;;;;;;13.05;11.80;;;;;;;28.69;55.74;97121.75;5057676;28;20036;-62
2021/06/29 06:58:28;;;;;;;15.48;13.93;;;;;;;28.46;56.90;97162.44;5049350;28;20040;-65
2021/06/29 07:00:54;;;;;;;17.17;12.18;;;;;;;28.29;56.74;97090.03;5052026;28;20048;-66
2021/06/29 07:03:19;;;;;;;11.88;10.68;;;;;;;28.31;55.99;97070.41;5065269;28;20416;-74
2021/06/29 07:05:45;;;;;;;13.38;12.13;;;;;;;28.33;56.73;97070.72;5056327;28;20391;-68
2021/06/29 07:08:10;;;;;;;13.80;12.43;;;;;;;28.38;56.26;97104.22;5054694;28;20374;-69
2021/06/29 07:10:36;;;;;;;16.15;14.23;;;;;;;28.08;57.59;97138.31;5059325;28;20059;-68
2021/06/29 07:13:01;;;;;;;14.55;12.85;;;;;;;27.21;60.27;97103.56;5047044;28;20033;-63
2021/06/29 07:15:29;;;;;;;16.88;12.00;;;;;;;27.78;59.05;97073.91;5044624;28;20447;-64
2021/06/29 07:17:54;;;;;;;15.10;12.07;;;;;;;28.51;58.61;97096.22;5051579;28;20461;-64
2021/06/29 07:20:20;;;;;;;16.17;12.77;;;;;;;28.74;56.72;97087.63;5063101;28;20028;-67
2021/06/29 07:22:45;;;;;;;15.98;12.35;;;;;;;28.93;56.63;97091.06;5052702;28;20029;-69
2021/06/29 07:25:11;;;;;;;14.20;11.68;;;;;;;28.77;55.33;97018.19;5050176;28;20044;-65
2021/06/29 07:27:37;;;;;;;14.23;12.70;;;;;;;28.11;54.42;96957.06;5045569;28;20154;-69
2021/06/29 07:30:05;;;;;;;14.25;12.05;;;;;;;29.20;54.28;97085.09;5054357;28;20068;-68
2021/06/29 07:32:31;;;;;;;12.73;11.27;;;;;;;28.26;55.09;97020.59;5053100;28;20074;-67
2021/06/29 07:34:56;;;;;;;13.20;11.90;;;;;;;28.63;54.11;97069.53;5057729;28;20025;-65
2021/06/29 07:37:22;;;;;;;13.27;11.98;;;;;;;28.70;54.07;97017.81;5048581;28;20028;-65
2021/06/29 07:39:47;;;;;;;12.80;11.07;;;;;;;29.19;54.04;97083.53;5050017;28;20044;-60
2021/06/29 07:42:13;;;;;;;15.85;10.98;;;;;;;29.05;52.56;97032.94;5047216;28;20062;-66
2021/06/29 07:44:38;;;;;;;12.32;11.15;;;;;;;29.69;52.51;97088.00;5059128;28;20529;-67
2021/06/29 07:47:04;;;;;;;12.27;10.73;;;;;;;27.62;52.39;96772.59;5051809;28;20083;-67
2021/06/29 07:49:29;;;;;;;12.70;10.38;;;;;;;29.78;52.04;97090.75;5047367;28;20033;-66
2021/06/29 07:51:55;;;;;;;13.25;11.93;;;;;;;29.70;52.55;97088.78;5045383;28;20515;-72
2021/06/29 07:54:21;;;;;;;13.40;11.80;;;;;;;29.75;52.45;97080.31;5055461;28;20342;-73
2021/06/29 07:56:46;;;;;;;15.13;12.80;;;;;;;29.84;53.73;97071.63;5043844;28;20032;-65
2021/06/29 07:59:12;;;;;;;15.85;13.38;;;;;;;30.05;52.55;97070.34;5042402;28;20118;-67
2021/06/29 08:01:38;;;;;;;20.92;14.00;;;;;;;29.74;52.62;96998.75;5042878;28;20431;-65
2021/06/29 08:04:03;;;;;;;18.38;12.73;;;;;;;30.16;52.34;97050.47;5051651;28;20044;-65
2021/06/29 08:06:29;;;;;;;14.40;11.93;;;;;;;30.64;52.89;97088.00;5063711;28;20418;-64
2021/06/29 08:08:54;;;;;;;13.15;12.05;;;;;;;30.89;51.48;97085.19;5063778;28;20174;-69
2021/06/29 08:11:20;;;;;;;14.70;11.98;;;;;;;30.91;50.04;97079.75;5056771;28;20517;-67
2021/06/29 08:13:46;;;;;;;13.43;12.02;;;;;;;30.79;50.59;97083.00;5061605;28;20144;-65
2021/06/29 08:16:12;;;;;;;14.50;12.27;;;;;;;30.90;50.72;97061.00;5061989;28;20571;-64
2021/06/29 08:18:38;;;;;;;14.10;12.13;;;;;;;31.31;49.58;97083.78;5046056;28;20048;-58
2021/06/29 08:21:06;;;;;;;14.65;12.82;;;;;;;31.53;49.95;97083.97;5050850;28;20086;-62
2021/06/29 08:23:31;;;;;;;12.57;11.38;;;;;;;31.37;48.68;97081.75;5059333;28;20033;-61
2021/06/29 08:25:57;;;;;;;14.02;12.10;;;;;;;31.32;49.55;97082.50;5045280;28;20119;-67
2021/06/29 08:28:23;;;;;;;14.75;13.45;;;;;;;31.50;49.48;97071.47;5047120;28;20499;-66
2021/06/29 08:30:51;;;;;;;14.82;13.25;;;;;;;31.65;49.21;97069.22;5043187;28;20411;-67
2021/06/29 08:33:21;;;;;;;14.27;12.60;;;;;;;31.63;48.74;97065.31;5049032;28;20083;-62
2021/06/29 08:35:49;;;;;;;13.85;12.60;;;;;;;31.77;47.84;97052.91;5042324;28;20470;-67
2021/06/29 08:38:16;;;;;;;14.70;13.23;;;;;;;31.90;47.39;97053.28;5055796;28;20034;-64
2021/06/29 08:40:42;;;;;;;14.20;12.77;;;;;;;31.94;48.38;97059.53;5050730;28;20040;-67
2021/06/29 08:43:09;;;;;;;13.77;12.45;;;;;;;32.14;47.31;97057.31;5049604;28;20043;-67
2021/06/29 08:45:36;;;;;;;13.55;12.48;;;;;;;31.96;45.85;97006.13;5050753;28;20040;-70
2021/06/29 08:48:04;;;;;;;13.80;12.60;;;;;;;32.05;46.94;97045.28;5047694;28;20036;-65
2021/06/29 08:50:31;;;;;;;13.68;12.20;;;;;;;32.04;46.41;97037.97;5052662;28;20514;-66
2021/06/29 08:52:58;;;;;;;13.82;12.63;;;;;;;31.83;46.74;96984.94;5045395;28;20571;-66
2021/06/29 08:55:28;;;;;;;12.52;11.38;;;;;;;32.50;46.27;97041.31;5043823;28;20112;-65
2021/06/29 08:57:54;;;;;;;12.82;11.27;;;;;;;32.57;44.84;97040.03;5042166;28;20538;-65
2021/06/29 09:00:20;;;;;;;12.73;11.68;;;;;;;32.32;44.91;97038.88;5044838;28;20432;-71
2021/06/29 09:02:46;;;;;;;13.93;12.63;;;;;;;32.27;45.59;97010.97;5059721;28;20045;-65
2021/06/29 09:05:25;;;;;;;11.90;10.95;;;;;;;32.53;45.57;97039.50;5055981;28;20040;-68
2021/06/29 09:08:13;;;;;;;15.70;13.82;;;;;;;32.41;45.91;97030.06;5043779;28;20609;-64
2021/06/29 09:10:41;;;;;;;12.10;11.10;;;;;;;32.43;46.11;97036.09;5043388;28;20041;-67
2021/06/29 09:13:08;;;;;;;13.48;12.50;;;;;;;32.61;45.16;97035.63;5043472;28;20415;-65
2021/06/29 09:15:43;;;;;;;13.35;12.05;;;;;;;32.86;44.10;97028.91;5041766;28;20553;-67
2021/06/29 09:18:12;;;;;;;13.27;11.98;;;;;;;32.56;44.62;96967.53;5043474;28;20066;-68
2021/06/29 09:20:49;;;;;;;13.90;12.57;;;;;;;32.96;45.08;97027.34;5042981;28;20506;-67
2021/06/29 09:23:42;;;;;;;13.63;12.40;;;;;;;32.79;44.96;97023.66;5043488;28;20601;-64
2021/06/29 09:26:13;;;;;;;13.38;11.77;;;;;;;33.02;44.87;97021.63;5043193;28;20094;-69
2021/06/29 09:28:51;;;;;;;14.10;12.80;;;;;;;32.52;45.24;97009.25;5042066;28;20098;-68
2021/06/29 09:31:19;;;;;;;12.68;11.65;;;;;;;32.25;46.50;97019.28;5041666;28;20458;-68
2021/06/29 09:33:52;;;;;;;13.75;12.35;;;;;;;32.85;46.36;97015.81;5043047;28;20251;-64
2021/06/29 09:36:21;;;;;;;13.70;12.20;;;;;;;33.20;43.91;97007.53;5041202;28;20033;-65
2021/06/29 09:38:49;;;;;;;15.40;11.45;;;;;;;33.53;43.01;96990.28;5043093;28;20143;-65
2021/06/29 09:41:28;;;;;;;13.80;12.48;;;;;;;33.98;42.58;97013.22;5042473;28;20036;-65
2021/06/29 09:44:02;;;;;;;13.45;12.20;;;;;;;33.92;41.99;96986.56;5043210;28;20037;-68
2021/06/29 09:46:27;;;;;;;13.48;12.18;;;;;;;34.07;40.64;97007.94;5049633;28;20697;-67
2021/06/29 09:48:56;;;;;;;13.90;12.50;;;;;;;34.09;41.14;97002.44;5062931;28;20032;-65
2021/06/29 09:51:30;;;;;;;13.55;12.23;;;;;;;33.72;42.45;96994.16;5060697;28;20485;-64
2021/06/29 09:53:58;;;;;;;13.93;12.55;;;;;;;33.78;42.11;97000.69;5062539;28;20036;-67
2021/06/29 09:56:35;;;;;;;12.95;11.75;;;;;;;33.73;41.74;96998.59;5061097;28;20495;-68
2021/06/29 09:59:01;;;;;;;14.75;13.13;;;;;;;33.51;42.82;96987.16;5065012;28;20076;-68
2021/06/29 10:01:30;;;;;;;13.55;12.23;;;;;;;33.59;42.63;97005.44;5064290;28;20129;-68
2021/06/29 10:03:57;;;;;;;13.45;12.38;;;;;;;34.00;42.20;96968.25;5066629;28;20503;-68
2021/06/29 10:06:28;;;;;;;13.88;12.68;;;;;;;33.56;42.09;96948.25;5065461;28;20268;-67
2021/06/29 10:09:05;;;;;;;13.70;12.32;;;;;;;33.18;43.87;96987.16;5066548;28;20029;-64
2021/06/29 10:11:34;;;;;;;13.45;12.35;;;;;;;33.50;43.33;96936.75;5064531;28;20032;-66
2021/06/29 10:14:04;;;;;;;12.55;11.25;;;;;;;34.21;42.13;96980.94;5064498;28;20063;-68
2021/06/29 10:16:37;;;;;;;12.60;11.57;;;;;;;34.06;41.74;96933.69;5065873;28;20020;-68
2021/06/29 10:19:15;;;;;;;14.00;12.82;;;;;;;34.29;41.55;96976.22;5066283;28;20052;-67
2021/06/29 10:21:45;;;;;;;13.85;12.70;;;;;;;34.18;41.12;96981.22;5065823;28;20028;-68
2021/06/29 10:24:13;;;;;;;13.82;12.80;;;;;;;34.12;41.57;96983.34;5066673;28;20067;-67
2021/06/29 10:26:40;;;;;;;13.07;11.65;;;;;;;34.17;40.47;96991.19;5064674;28;20029;-68
2021/06/29 10:29:12;;;;;;;13.73;12.40;;;;;;;34.42;39.55;96955.50;5066523;28;20041;-65
2021/06/29 10:31:41;;;;;;;13.98;12.98;;;;;;;34.59;39.39;96976.31;5066051;28;20032;-64
2021/06/29 10:34:08;;;;;;;13.27;11.98;;;;;;;32.07;42.30;96868.56;5066459;28;20036;-68
2021/06/29 10:36:39;;;;;;;13.60;11.82;;;;;;;33.12;42.64;96971.22;5065723;28;20028;-67
2021/06/29 10:39:07;;;;;;;12.75;11.75;;;;;;;33.80;41.68;96933.28;5065998;28;20032;-63
2021/06/29 10:41:35;;;;;;;12.98;12.07;;;;;;;34.14;40.09;96951.97;5064173;28;20086;-66
2021/06/29 10:44:01;;;;;;;13.95;12.75;;;;;;;32.42;41.93;96959.16;5065767;28;20115;-63
2021/06/29 10:46:29;;;;;;;12.75;11.55;;;;;;;32.93;41.60;96953.00;5065899;28;20040;-64
2021/06/29 10:48:56;;;;;;;18.02;16.20;;;;;;;32.18;41.75;96865.72;5066323;28;20032;-68
2021/06/29 10:51:38;;;;;;;13.07;11.80;;;;;;;33.20;42.24;96915.63;5065494;28;20036;-67
2021/06/29 10:54:04;;;;;;;13.50;12.48;;;;;;;34.03;42.96;96952.03;5064122;28;20038;-65
2021/06/29 10:56:53;;;;;;;14.32;12.98;;;;;;;33.24;41.74;96838.63;5059993;28;20480;-68
2021/06/29 10:59:31;;;;;;;13.23;12.02;;;;;;;32.06;42.25;96685.63;5052368;28;20025;-62
2021/06/29 11:01:57;;;;;;;13.85;12.55;;;;;;;33.81;42.70;96934.84;5054632;28;20514;-65
2021/06/29 11:04:46;;;;;;;15.05;13.57;;;;;;;34.11;41.39;96932.91;5064976;28;20040;-70
2021/06/29 11:07:29;;;;;;;14.45;13.30;;;;;;;33.98;41.75;96961.44;5055484;28;20047;-67
2021/06/29 11:10:03;;;;;;;;;;;;;;;34.18;41.33;96923.69;5066281;28;20040;-69
2021/06/29 11:12:31;;;;;;;14.35;13.07;;;;;;;34.14;41.65;96928.97;5065660;28;19939;-70
2021/06/29 11:14:59;;;;;;;14.68;13.32;;;;;;;34.17;40.25;96899.13;5065276;28;20594;-63
2021/06/29 11:17:46;;;;;;;13.77;12.55;;;;;;;34.64;40.02;96920.81;5064762;28;20526;-64
2021/06/29 11:20:13;;;;;;;13.82;12.63;;;;;;;34.77;39.33;96924.66;5065071;28;20050;-64
2021/06/29 11:22:57;;;;;;;13.00;11.77;;;;;;;34.95;40.09;96949.16;5065566;28;20102;-70